sensor_id;sensor_type;location;lat;lon;timestamp;temperature;humidity
75357;HTU21D;63946;51.986;5.930;2023-04-01T05:10:40;10.68;79.23
75357;HTU21D;63946;51.986;5.930;2023-04-01T05:13:09;10.69;79.27
75357;HTU21D;63946;51.986;5.930;2023-04-01T05:15:40;10.71;79.32
75357;HTU21D;63946;51.986;5.930;2023-04-01T05:18:11;10.72;79.33
75357;HTU21D;63946;51.986;5.930;2023-04-01T05:20:49;10.73;79.34
75357;HTU21D;63946;51.986;5.930;2023-04-01T05:23:19;10.72;79.40
75357;HTU21D;63946;51.986;5.930;2023-04-01T05:25:49;10.75;79.38
75357;HTU21D;63946;51.986;5.930;2023-04-01T05:28:19;10.75;79.40
75357;HTU21D;63946;51.986;5.930;2023-04-01T05:30:51;10.77;79.43
75357;HTU21D;63946;51.986;5.930;2023-04-01T05:33:22;10.79;79.41
75357;HTU21D;63946;51.986;5.930;2023-04-01T05:35:50;10.81;79.36
75357;HTU21D;63946;51.986;5.930;2023-04-01T05:38:19;10.82;79.42
75357;HTU21D;63946;51.986;5.930;2023-04-01T05:40:49;10.84;79.42
75357;HTU21D;63946;51.986;5.930;2023-04-01T05:43:18;10.85;79.46
75357;HTU21D;63946;51.986;5.930;2023-04-01T05:45:49;10.87;79.46
75357;HTU21D;63946;51.986;5.930;2023-04-01T05:48:38;10.90;79.39
75357;HTU21D;63946;51.986;5.930;2023-04-01T05:51:13;10.95;79.33
75357;HTU21D;63946;51.986;5.930;2023-04-01T05:53:42;10.95;79.30
75357;HTU21D;63946;51.986;5.930;2023-04-01T05:56:14;10.97;79.29
75357;HTU21D;63946;51.986;5.930;2023-04-01T05:58:51;11.00;79.21
75357;HTU21D;63946;51.986;5.930;2023-04-01T06:01:22;11.03;79.11
75357;HTU21D;63946;51.986;5.930;2023-04-01T06:03:51;11.03;79.04
75357;HTU21D;63946;51.986;5.930;2023-04-01T06:06:25;11.04;78.95
75357;HTU21D;63946;51.986;5.930;2023-04-01T06:09:14;11.00;78.90
75357;HTU21D;63946;51.986;5.930;2023-04-01T06:20:59;11.01;78.51
75357;HTU21D;63946;51.986;5.930;2023-04-01T06:38:05;11.10;78.26
75357;HTU21D;63946;51.986;5.930;2023-04-01T06:47:28;11.20;78.19
75357;HTU21D;63946;51.986;5.930;2023-04-01T06:54:07;11.32;77.92
75357;HTU21D;63946;51.986;5.930;2023-04-01T06:57:23;11.32;77.98
75357;HTU21D;63946;51.986;5.930;2023-04-01T07:00:03;11.33;78.01
75357;HTU21D;63946;51.986;5.930;2023-04-01T07:02:52;11.33;78.05
75357;HTU21D;63946;51.986;5.930;2023-04-01T07:05:26;11.32;78.12
75357;HTU21D;63946;51.986;5.930;2023-04-01T07:08:02;11.36;78.14
75357;HTU21D;63946;51.986;5.930;2023-04-01T07:10:47;11.39;78.19
75357;HTU21D;63946;51.986;5.930;2023-04-01T07:13:49;11.45;78.11
75357;HTU21D;63946;51.986;5.930;2023-04-01T07:22:17;11.52;78.12
75357;HTU21D;63946;51.986;5.930;2023-04-01T07:25:26;11.54;78.17
75357;HTU21D;63946;51.986;5.930;2023-04-01T07:28:16;11.58;78.23
75357;HTU21D;63946;51.986;5.930;2023-04-01T07:33:44;11.70;78.17
75357;HTU21D;63946;51.986;5.930;2023-04-01T07:36:24;11.74;78.11
75357;HTU21D;63946;51.986;5.930;2023-04-01T07:42:24;11.81;78.05
75357;HTU21D;63946;51.986;5.930;2023-04-01T19:38:53;9.50;78.47
75357;HTU21D;63946;51.986;5.930;2023-04-01T19:41:50;9.46;78.54
75357;HTU21D;63946;51.986;5.930;2023-04-01T19:44:47;9.36;79.01
75357;HTU21D;63946;51.986;5.930;2023-04-01T19:50:53;9.38;79.09
75357;HTU21D;63946;51.986;5.930;2023-04-01T19:53:46;9.34;78.98
75357;HTU21D;63946;51.986;5.930;2023-04-01T19:59:18;9.27;79.01
75357;HTU21D;63946;51.986;5.930;2023-04-01T20:04:49;9.16;78.80
75357;HTU21D;63946;51.986;5.930;2023-04-01T20:07:52;9.12;78.83
75357;HTU21D;63946;51.986;5.930;2023-04-01T20:13:42;9.09;78.50
75357;HTU21D;63946;51.986;5.930;2023-04-01T20:16:15;9.00;78.55
75357;HTU21D;63946;51.986;5.930;2023-04-01T20:19:00;8.95;78.62
75357;HTU21D;63946;51.986;5.930;2023-04-01T20:26:50;9.00;78.83
75357;HTU21D;63946;51.986;5.930;2023-04-01T20:34:56;8.92;78.71
75357;HTU21D;63946;51.986;5.930;2023-04-01T20:37:48;8.86;78.54
75357;HTU21D;63946;51.986;5.930;2023-04-01T20:48:45;8.67;78.50
75357;HTU21D;63946;51.986;5.930;2023-04-01T20:51:23;8.62;78.61
75357;HTU21D;63946;51.986;5.930;2023-04-01T21:11:18;8.50;78.37
75357;HTU21D;63946;51.986;5.930;2023-04-01T21:14:04;8.46;78.34
75357;HTU21D;63946;51.986;5.930;2023-04-01T21:16:47;8.43;78.24
75357;HTU21D;63946;51.986;5.930;2023-04-01T21:20:06;8.44;78.30
75357;HTU21D;63946;51.986;5.930;2023-04-01T21:25:44;8.45;78.30
75357;HTU21D;63946;51.986;5.930;2023-04-01T21:28:26;8.42;78.25
75357;HTU21D;63946;51.986;5.930;2023-04-01T21:31:31;8.39;78.17
75357;HTU21D;63946;51.986;5.930;2023-04-01T21:38:04;8.27;78.02
75357;HTU21D;63946;51.986;5.930;2023-04-01T21:41:17;8.26;77.82
75357;HTU21D;63946;51.986;5.930;2023-04-01T21:43:54;8.22;77.95
75357;HTU21D;63946;51.986;5.930;2023-04-01T22:07:02;8.08;77.48
75357;HTU21D;63946;51.986;5.930;2023-04-01T22:10:17;8.09;77.55
75357;HTU21D;63946;51.986;5.930;2023-04-01T22:12:35;8.04;77.29
75357;HTU21D;63946;51.986;5.930;2023-04-01T22:15:52;7.99;77.26
75357;HTU21D;63946;51.986;5.930;2023-04-01T22:18:33;7.93;77.31
75357;HTU21D;63946;51.986;5.930;2023-04-01T22:21:27;7.91;77.58
75357;HTU21D;63946;51.986;5.930;2023-04-01T22:24:11;7.92;77.57
75357;HTU21D;63946;51.986;5.930;2023-04-01T22:27:01;7.91;77.67
75357;HTU21D;63946;51.986;5.930;2023-04-01T22:29:38;7.91;77.72
75357;HTU21D;63946;51.986;5.930;2023-04-01T22:32:21;7.92;77.74
75357;HTU21D;63946;51.986;5.930;2023-04-01T22:35:07;7.88;77.75
75357;HTU21D;63946;51.986;5.930;2023-04-01T22:37:40;7.84;77.88
75357;HTU21D;63946;51.986;5.930;2023-04-01T22:40:30;7.82;77.90
75357;HTU21D;63946;51.986;5.930;2023-04-01T22:43:13;7.76;77.85
75357;HTU21D;63946;51.986;5.930;2023-04-01T22:46:03;7.78;77.94
75357;HTU21D;63946;51.986;5.930;2023-04-01T22:51:18;7.74;77.66
75357;HTU21D;63946;51.986;5.930;2023-04-01T22:54:23;7.69;77.76
75357;HTU21D;63946;51.986;5.930;2023-04-01T22:56:57;7.65;77.82
75357;HTU21D;63946;51.986;5.930;2023-04-01T22:59:36;7.65;77.72
75357;HTU21D;63946;51.986;5.930;2023-04-01T23:02:18;7.65;77.55
75357;HTU21D;63946;51.986;5.930;2023-04-01T23:10:59;7.60;77.53
75357;HTU21D;63946;51.986;5.930;2023-04-01T23:13:33;7.58;77.51
75357;HTU21D;63946;51.986;5.930;2023-04-01T23:16:07;7.59;77.48
75357;HTU21D;63946;51.986;5.930;2023-04-01T23:18:50;7.60;77.60
75357;HTU21D;63946;51.986;5.930;2023-04-01T23:21:45;7.59;77.69
75357;HTU21D;63946;51.986;5.930;2023-04-01T23:24:38;7.56;77.62
75357;HTU21D;63946;51.986;5.930;2023-04-01T23:27:43;7.55;77.85
75357;HTU21D;63946;51.986;5.930;2023-04-01T23:35:54;7.46;77.64
75357;HTU21D;63946;51.986;5.930;2023-04-01T23:38:34;7.41;77.62
75357;HTU21D;63946;51.986;5.930;2023-04-01T23:41:05;7.39;77.73
75357;HTU21D;63946;51.986;5.930;2023-04-01T23:43:40;7.39;77.84
75357;HTU21D;63946;51.986;5.930;2023-04-01T23:46:12;7.37;77.72
75357;HTU21D;63946;51.986;5.930;2023-04-01T23:48:44;7.35;77.79
75357;HTU21D;63946;51.986;5.930;2023-04-01T23:51:22;7.35;77.75
75357;HTU21D;63946;51.986;5.930;2023-04-01T23:54:02;7.29;77.56
75357;HTU21D;63946;51.986;5.930;2023-04-01T23:56:35;7.24;77.59
75357;HTU21D;63946;51.986;5.930;2023-04-01T23:59:15;7.16;77.64
